Time;durP1;ratioP1;P1;durP2;ratioP2;P2;SDS_P1;SDS_P2;PMS_P1;PMS_P2;Temp;Humidity;BMP_temperature;BMP_pressure;BME280_temperature;BME280_humidity;BME280_pressure;Samples;Min_cycle;Max_cycle;Signal;HPM_P1;HPM_P2
2023/03/10 00:01:29;;;;;;;4.40;2.40;;;;;;;5.02;72.81;98889.52;107848;1257;73285;-63
2023/03/10 00:04:15;;;;;;;3.20;1.90;;;;;;;4.91;73.01;98892.19;107882;1254;72647;-64
2023/03/10 00:06:45;;;;;;;3.20;2.00;;;;;;;4.83;73.22;98894.42;108482;1254;72569;-63
2023/03/10 00:09:14;;;;;;;2.50;1.80;;;;;;;4.80;73.23;98886.73;107846;1254;61736;-63
2023/03/10 00:11:57;;;;;;;2.90;1.90;;;;;;;4.77;73.44;98887.59;107843;1255;61314;-64
2023/03/10 00:14:42;;;;;;;2.40;1.80;;;;;;;4.76;73.66;98903.55;108278;1254;74377;-63
2023/03/10 00:17:35;;;;;;;2.90;2.10;;;;;;;4.76;73.88;98910.73;107882;1255;73324;-64
2023/03/10 00:20:10;;;;;;;3.00;2.10;;;;;;;4.76;73.90;98911.60;107895;1257;73407;-63
2023/03/10 00:22:46;;;;;;;3.50;2.10;;;;;;;4.77;74.19;98920.17;109257;1254;60583;-63
2023/03/10 00:25:19;;;;;;;4.90;4.00;;;;;;;4.76;74.18;98920.38;107943;1257;61270;-62
2023/03/10 00:27:51;;;;;;;5.20;4.00;;;;;;;4.75;74.39;98917.98;107901;1256;75123;-62
2023/03/10 00:30:23;;;;;;;3.40;2.50;;;;;;;4.74;74.18;98919.90;108089;1256;73397;-62
2023/03/10 00:32:52;;;;;;;3.50;2.30;;;;;;;4.71;73.92;98922.80;107882;1254;73826;-62
2023/03/10 00:35:21;;;;;;;2.80;1.70;;;;;;;4.69;73.84;98927.69;108000;1259;61247;-63
2023/03/10 00:37:50;;;;;;;3.00;1.90;;;;;;;4.68;73.57;98931.29;107928;1254;61319;-63
2023/03/10 00:40:21;;;;;;;3.60;2.20;;;;;;;4.65;73.58;98934.55;107852;1257;75673;-64
2023/03/10 00:42:59;;;;;;;3.10;2.20;;;;;;;4.67;73.58;98936.09;108198;1253;72160;-64
2023/03/10 00:45:27;;;;;;;2.80;1.80;;;;;;;4.65;73.42;98945.92;107841;1254;73905;-63
2023/03/10 00:47:59;;;;;;;3.60;2.00;;;;;;;4.63;73.09;98949.89;107940;1254;61432;-63
2023/03/10 00:50:27;;;;;;;2.80;1.60;;;;;;;4.59;72.76;98956.68;107921;1254;61260;-63
2023/03/10 00:53:00;;;;;;;2.50;1.50;;;;;;;4.52;72.66;98967.44;107870;1254;73565;-63
2023/03/10 00:55:29;;;;;;;2.90;1.70;;;;;;;4.46;72.49;98981.26;107947;1254;73047;-64
2023/03/10 00:57:57;;;;;;;2.70;1.70;;;;;;;4.42;72.36;98988.01;107959;1254;72671;-62
2023/03/10 01:00:26;;;;;;;2.60;1.60;;;;;;;4.39;72.26;98998.73;107905;1254;62755;-63
2023/03/10 01:02:55;;;;;;;2.80;1.60;;;;;;;4.35;72.14;99013.39;108565;1254;61244;-62
2023/03/10 01:05:27;;;;;;;3.50;2.10;;;;;;;4.30;71.76;99018.05;107985;1257;75835;-63
2023/03/10 01:07:56;;;;;;;5.30;3.20;;;;;;;4.26;71.71;99029.13;108003;1254;71950;-62
2023/03/10 01:10:25;;;;;;;5.10;3.10;;;;;;;4.23;71.65;99042.15;107913;1257;73222;-64
2023/03/10 01:12:54;;;;;;;3.90;2.60;;;;;;;4.23;71.81;99047.96;107873;1254;61211;-63
2023/03/10 01:15:23;;;;;;;5.10;3.60;;;;;;;4.22;71.61;99054.89;107981;1254;61612;-62
2023/03/10 01:17:52;;;;;;;5.40;3.30;;;;;;;4.19;71.50;99056.40;107878;1254;74091;-63
2023/03/10 01:20:21;;;;;;;4.50;3.10;;;;;;;4.15;71.27;99057.27;107942;1254;73466;-63
2023/03/10 01:22:49;;;;;;;4.00;2.60;;;;;;;4.14;71.06;99062.05;107927;1254;73667;-63
2023/03/10 01:25:17;;;;;;;4.20;2.30;;;;;;;4.13;71.16;99065.42;107918;1254;61628;-63
2023/03/10 01:27:46;;;;;;;3.20;2.10;;;;;;;4.10;70.99;99077.55;107834;1254;61110;-61
2023/03/10 01:30:14;;;;;;;4.20;2.30;;;;;;;4.07;71.27;99084.02;107777;1254;75420;-62
2023/03/10 01:32:45;;;;;;;4.60;3.00;;;;;;;4.06;71.45;99094.27;108013;1254;73619;-63
2023/03/10 01:35:14;;;;;;;5.40;4.10;;;;;;;4.02;71.67;99101.38;108005;1254;73554;-62
2023/03/10 01:37:43;;;;;;;5.30;3.90;;;;;;;4.00;71.81;99108.85;107931;1254;61234;-63
2023/03/10 01:40:15;;;;;;;3.90;2.70;;;;;;;4.01;72.03;99109.98;108008;1254;61096;-63
2023/03/10 01:42:44;;;;;;;4.90;3.60;;;;;;;4.03;72.24;99110.15;107971;1254;74149;-63
2023/03/10 01:45:13;;;;;;;4.30;2.40;;;;;;;4.07;72.37;99123.39;108042;1253;71709;-63
2023/03/10 01:47:42;;;;;;;2.90;2.00;;;;;;;4.06;72.22;99124.44;107938;1254;73462;-63
2023/03/10 01:50:12;;;;;;;3.10;1.70;;;;;;;4.01;72.01;99129.30;107960;1254;61199;-64
2023/03/10 01:52:42;;;;;;;2.70;1.80;;;;;;;3.97;71.97;99135.98;108016;1257;61332;-63
2023/03/10 01:55:11;;;;;;;3.60;2.00;;;;;;;3.93;72.12;99145.50;108062;1257;73740;-63
2023/03/10 01:57:43;;;;;;;2.90;2.00;;;;;;;3.93;72.07;99151.36;107873;1254;73676;-63
2023/03/10 02:00:15;;;;;;;3.40;2.10;;;;;;;3.91;72.19;99158.09;108072;1254;73374;-63
2023/03/10 02:02:57;;;;;;;5.20;3.00;;;;;;;3.91;72.59;99161.48;107863;1254;61243;-64
2023/03/10 02:05:26;;;;;;;3.30;2.20;;;;;;;3.92;72.63;99162.81;108052;1254;61211;-63
2023/03/10 02:07:55;;;;;;;3.70;2.60;;;;;;;3.93;72.63;99160.23;107860;1256;75521;-63
2023/03/10 02:10:24;;;;;;;3.60;2.10;;;;;;;3.90;72.65;99169.98;107980;1254;73416;-63
2023/03/10 02:12:53;;;;;;;3.60;2.00;;;;;;;3.85;72.48;99175.27;108032;1254;73018;-63
2023/03/10 02:15:21;;;;;;;3.20;1.60;;;;;;;3.81;72.34;99179.38;108004;1254;61986;-62
2023/03/10 02:17:50;;;;;;;3.20;1.90;;;;;;;3.78;72.30;99183.25;108063;1254;61323;-62
2023/03/10 02:20:33;;;;;;;3.90;1.90;;;;;;;3.74;71.91;99199.16;107918;1254;75597;-63
2023/03/10 02:23:01;;;;;;;3.60;1.80;;;;;;;3.70;71.71;99205.17;107897;1254;73688;-63
2023/03/10 02:25:35;;;;;;;3.50;2.00;;;;;;;3.68;71.79;99202.52;107931;1254;73688;-63
2023/03/10 02:28:04;;;;;;;3.30;2.00;;;;;;;3.69;71.68;99211.77;108039;1254;61399;-63
2023/03/10 02:30:36;;;;;;;2.70;1.70;;;;;;;3.67;71.57;99218.07;107880;1254;61112;-63
2023/03/10 02:33:08;;;;;;;2.90;1.90;;;;;;;3.68;71.69;99227.80;107877;1254;72819;-63
2023/03/10 02:35:37;;;;;;;2.80;1.70;;;;;;;3.69;71.85;99237.81;107980;1254;74254;-63
2023/03/10 02:38:09;;;;;;;2.70;1.80;;;;;;;3.72;72.21;99250.58;107910;1254;73660;-62
2023/03/10 02:40:46;;;;;;;2.80;1.60;;;;;;;3.74;72.23;99263.27;107896;1255;61257;-62
2023/03/10 02:43:31;;;;;;;2.60;1.40;;;;;;;3.73;72.14;99265.16;107983;1254;61836;-62
2023/03/10 02:46:05;;;;;;;2.70;1.50;;;;;;;3.67;72.40;99264.24;107998;1254;74869;-63
2023/03/10 02:48:36;;;;;;;2.70;1.60;;;;;;;3.61;72.34;99268.53;107994;1254;73277;-62
2023/03/10 02:51:20;;;;;;;2.40;1.40;;;;;;;3.54;72.11;99275.13;107947;1255;72582;-62
2023/03/10 02:53:49;;;;;;;3.10;1.50;;;;;;;3.47;72.28;99276.67;107826;1254;61518;-63
2023/03/10 02:56:17;;;;;;;3.50;1.80;;;;;;;3.45;72.03;99282.77;107962;1254;61215;-63
2023/03/10 02:58:46;;;;;;;3.20;1.50;;;;;;;3.41;72.20;99287.46;107915;1254;74599;-64
2023/03/10 03:01:17;;;;;;;3.30;1.70;;;;;;;3.40;72.07;99286.64;107980;1254;73950;-62
2023/03/10 03:03:46;;;;;;;2.50;1.60;;;;;;;3.38;72.02;99294.01;107953;1254;70943;-62
2023/03/10 03:06:15;;;;;;;2.40;1.50;;;;;;;3.37;72.05;99292.58;108006;1254;61121;-63
2023/03/10 03:08:44;;;;;;;2.30;1.40;;;;;;;3.36;71.92;99292.04;108028;1254;61721;-63
2023/03/10 03:11:15;;;;;;;2.40;1.40;;;;;;;3.31;71.95;99282.91;107999;1254;74663;-64
2023/03/10 03:13:44;;;;;;;2.90;1.40;;;;;;;3.24;72.08;99288.15;108035;1254;72931;-62
2023/03/10 03:16:13;;;;;;;2.80;1.60;;;;;;;3.24;72.04;99288.77;107856;1259;72943;-63
2023/03/10 03:18:42;;;;;;;2.40;1.40;;;;;;;3.28;71.75;99298.34;107961;1254;61234;-62
2023/03/10 03:21:16;;;;;;;2.20;1.40;;;;;;;3.29;71.78;99298.88;108011;1254;61099;-62
2023/03/10 03:23:45;;;;;;;3.60;1.70;;;;;;;3.29;71.78;99307.13;108013;1254;75571;-62
2023/03/10 03:26:17;;;;;;;2.40;1.30;;;;;;;3.28;71.73;99314.06;108191;1254;73714;-62
2023/03/10 03:28:48;;;;;;;3.90;1.60;;;;;;;3.28;71.76;99322.08;108012;1256;71307;-63
2023/03/10 03:31:22;;;;;;;3.30;1.70;;;;;;;3.29;71.74;99320.03;108004;1254;62227;-63
2023/03/10 03:33:59;;;;;;;3.10;1.60;;;;;;;3.30;71.72;99326.89;107917;1259;60658;-62
2023/03/10 03:36:29;;;;;;;3.10;1.50;;;;;;;3.31;71.67;99333.06;108025;1254;75598;-63
2023/03/10 03:38:57;;;;;;;2.00;1.30;;;;;;;3.29;71.57;99341.38;108032;1254;72346;-63
2023/03/10 03:41:29;;;;;;;2.80;1.60;;;;;;;3.30;71.57;99349.38;107993;1254;73546;-63
2023/03/10 03:43:57;;;;;;;2.40;1.50;;;;;;;3.28;71.29;99350.34;107954;1254;62105;-63
2023/03/10 03:46:28;;;;;;;2.70;1.60;;;;;;;3.25;71.18;99355.08;107887;1260;60024;-63
2023/03/10 03:48:58;;;;;;;3.10;1.60;;;;;;;3.25;71.18;99359.42;108044;1254;75398;-63
2023/03/10 03:51:30;;;;;;;2.50;1.60;;;;;;;3.27;71.03;99365.89;108009;1254;71621;-63
2023/03/10 03:53:59;;;;;;;3.60;1.80;;;;;;;3.28;70.88;99368.38;108060;1257;71509;-63
2023/03/10 03:56:28;;;;;;;3.30;1.80;;;;;;;3.29;70.90;99375.09;107957;1254;61650;-64
2023/03/10 03:58:57;;;;;;;3.00;2.10;;;;;;;3.29;70.61;99376.27;107996;1259;61253;-64
2023/03/10 04:01:26;;;;;;;3.20;2.00;;;;;;;3.28;70.52;99384.42;108040;1254;74863;-64
2023/03/10 04:03:55;;;;;;;2.80;1.80;;;;;;;3.25;70.22;99388.38;108113;1254;71477;-64
2023/03/10 04:06:24;;;;;;;3.20;2.10;;;;;;;3.23;70.02;99391.38;108023;1254;70927;-65
2023/03/10 04:08:53;;;;;;;4.60;2.50;;;;;;;3.24;70.09;99392.23;107959;1256;61306;-63
2023/03/10 04:11:22;;;;;;;6.00;2.60;;;;;;;3.25;70.08;99392.98;107965;1254;61208;-63
2023/03/10 04:13:51;;;;;;;3.60;2.30;;;;;;;3.26;69.84;99394.21;107965;1257;74752;-63
2023/03/10 04:16:19;;;;;;;3.80;1.90;;;;;;;3.23;69.49;99403.39;107903;1258;73595;-63
2023/03/10 04:18:48;;;;;;;4.30;2.00;;;;;;;3.21;69.41;99405.36;108075;1254;72490;-65
2023/03/10 04:21:17;;;;;;;4.40;2.20;;;;;;;3.19;69.44;99407.06;107954;1254;61996;-63
2023/03/10 04:23:46;;;;;;;3.60;1.80;;;;;;;3.19;69.30;99407.59;107974;1254;61326;-64
2023/03/10 04:26:19;;;;;;;4.10;2.10;;;;;;;3.15;69.27;99410.16;108009;1254;75858;-64
2023/03/10 04:28:48;;;;;;;3.20;2.10;;;;;;;3.14;69.10;99418.11;108066;1257;73827;-63
2023/03/10 04:31:19;;;;;;;3.70;2.20;;;;;;;3.14;69.01;99415.95;108090;1254;72706;-64
2023/03/10 04:33:49;;;;;;;3.90;2.20;;;;;;;3.15;68.95;99420.18;108108;1254;61129;-64
2023/03/10 04:36:19;;;;;;;3.50;2.10;;;;;;;3.17;68.91;99423.14;108048;1254;61231;-64
2023/03/10 04:38:51;;;;;;;4.80;2.50;;;;;;;3.19;68.84;99420.14;107876;1254;74806;-64
2023/03/10 04:41:23;;;;;;;4.20;2.50;;;;;;;3.19;68.81;99413.60;104118;1254;5248065;-63
2023/03/10 04:43:54;;;;;;;4.10;2.70;;;;;;;3.17;68.82;99409.09;107930;1254;73736;-64
2023/03/10 04:46:23;;;;;;;3.20;2.30;;;;;;;3.18;68.64;99414.13;107833;1254;62449;-63
2023/03/10 04:48:54;;;;;;;3.50;2.30;;;;;;;3.20;68.76;99418.23;107904;1253;61173;-64
2023/03/10 04:51:23;;;;;;;4.40;2.40;;;;;;;3.22;68.47;99421.52;107873;1254;74240;-64
2023/03/10 04:53:52;;;;;;;3.70;2.00;;;;;;;3.17;67.99;99421.64;107819;1254;72096;-62
2023/03/10 04:56:21;;;;;;;4.70;2.10;;;;;;;3.08;67.43;99425.80;107918;1259;73842;-62
2023/03/10 04:58:51;;;;;;;4.50;2.20;;;;;;;3.03;67.16;99427.45;107921;1253;61310;-63
2023/03/10 05:01:35;;;;;;;3.00;1.40;;;;;;;2.98;67.07;99428.84;107872;1254;60322;-63
2023/03/10 05:04:24;;;;;;;4.60;2.30;;;;;;;2.96;66.92;99431.45;108339;1254;74235;-63
2023/03/10 05:06:53;;;;;;;3.90;1.70;;;;;;;2.94;66.94;99426.76;108078;1254;72295;-64
2023/03/10 05:09:29;;;;;;;3.80;1.90;;;;;;;2.93;66.57;99431.27;108024;1254;71879;-63
2023/03/10 05:12:13;;;;;;;4.30;2.50;;;;;;;2.93;66.33;99441.70;107995;1254;61413;-63
2023/03/10 05:14:57;;;;;;;5.10;2.60;;;;;;;2.91;66.26;99452.70;108035;1254;61126;-63
2023/03/10 05:17:27;;;;;;;4.00;2.40;;;;;;;2.94;66.40;99459.20;108032;1254;75809;-64
2023/03/10 05:19:58;;;;;;;5.10;2.50;;;;;;;2.97;66.35;99457.99;108048;1258;71801;-64
2023/03/10 05:22:29;;;;;;;3.20;2.10;;;;;;;3.02;66.14;99466.39;107848;1254;72895;-63
2023/03/10 05:25:07;;;;;;;3.70;2.30;;;;;;;3.07;65.82;99467.20;107975;1258;62779;-63
2023/03/10 05:27:39;;;;;;;5.50;2.50;;;;;;;3.10;65.64;99462.34;107680;1261;61106;-63
2023/03/10 05:30:10;;;;;;;9.00;4.20;;;;;;;3.12;65.48;99466.20;108036;1254;73867;-63
2023/03/10 05:32:38;;;;;;;5.20;2.80;;;;;;;3.16;65.49;99475.14;108033;1258;70813;-65
2023/03/10 05:35:08;;;;;;;5.10;2.40;;;;;;;3.19;65.46;99472.09;108082;1254;72954;-64
2023/03/10 05:37:41;;;;;;;4.90;2.50;;;;;;;3.23;65.56;99476.16;107923;1254;61250;-65
2023/03/10 05:40:15;;;;;;;4.30;2.30;;;;;;;3.24;65.45;99475.56;107937;1256;61121;-64
2023/03/10 05:42:43;;;;;;;6.10;2.40;;;;;;;3.25;65.05;99484.87;107850;1254;74792;-64
2023/03/10 05:45:12;;;;;;;4.70;2.40;;;;;;;3.24;64.76;99492.70;107933;1254;72374;-63
2023/03/10 05:47:47;;;;;;;5.80;2.50;;;;;;;3.25;64.69;99506.56;107997;1258;71951;-63
2023/03/10 05:50:16;;;;;;;6.70;2.90;;;;;;;3.29;64.74;99521.52;107976;1254;61083;-62
2023/03/10 05:52:46;;;;;;;4.70;2.50;;;;;;;3.36;64.93;99531.30;107938;1254;61506;-64
2023/03/10 05:55:19;;;;;;;3.60;1.90;;;;;;;3.44;64.52;99540.56;108399;1254;74116;-63
2023/03/10 05:57:47;;;;;;;3.40;2.00;;;;;;;3.49;64.11;99547.41;107946;1254;71860;-63
2023/03/10 06:00:19;;;;;;;4.50;2.30;;;;;;;3.46;63.40;99548.81;108016;1254;73904;-62
2023/03/10 06:02:54;;;;;;;4.80;2.10;;;;;;;3.46;63.68;99553.84;107971;1254;61132;-65
2023/03/10 06:05:26;;;;;;;5.50;2.80;;;;;;;3.50;63.60;99558.45;108068;1254;61221;-65
2023/03/10 06:07:54;;;;;;;5.10;2.20;;;;;;;3.54;63.66;99557.53;108012;1254;74062;-64
2023/03/10 06:10:23;;;;;;;4.80;2.10;;;;;;;3.60;63.41;99554.05;108013;1254;72307;-64
2023/03/10 06:12:55;;;;;;;4.80;2.30;;;;;;;3.65;63.36;99553.73;108007;1257;73794;-63
2023/03/10 06:15:25;;;;;;;4.90;2.50;;;;;;;3.74;63.38;99545.33;108066;1254;61223;-62
2023/03/10 06:17:53;;;;;;;4.80;2.30;;;;;;;3.78;62.75;99542.23;108044;1254;60957;-63
2023/03/10 06:20:24;;;;;;;5.10;2.50;;;;;;;3.75;62.48;99545.35;108050;1254;75649;-63
2023/03/10 06:22:53;;;;;;;4.50;2.20;;;;;;;3.75;62.35;99551.63;108110;1254;72758;-63
2023/03/10 06:25:22;;;;;;;4.70;2.20;;;;;;;3.84;62.38;99556.81;108108;1254;73605;-65
2023/03/10 06:27:50;;;;;;;3.60;1.90;;;;;;;3.92;62.50;99555.33;108067;1254;62450;-66
2023/03/10 06:30:19;;;;;;;4.00;2.10;;;;;;;4.04;62.46;99560.44;108001;1258;61945;-62
2023/03/10 06:32:49;;;;;;;3.60;2.10;;;;;;;4.15;62.34;99559.26;108028;1254;75631;-63
2023/03/10 06:35:18;;;;;;;4.20;2.20;;;;;;;4.26;62.42;99560.05;108073;1254;73056;-63
2023/03/10 06:37:55;;;;;;;5.20;2.50;;;;;;;4.40;62.07;99562.88;108009;1257;72002;-63
2023/03/10 06:40:23;;;;;;;5.60;2.70;;;;;;;4.49;61.70;99568.05;108037;1254;61426;-63
2023/03/10 06:42:51;;;;;;;4.60;2.60;;;;;;;4.57;61.49;99570.64;108048;1254;61137;-63
2023/03/10 06:45:21;;;;;;;4.10;2.10;;;;;;;4.66;61.13;99566.77;108045;1254;74992;-63
2023/03/10 06:47:49;;;;;;;5.20;2.30;;;;;;;4.76;60.95;99566.27;108047;1254;73725;-64
2023/03/10 06:50:18;;;;;;;3.50;1.90;;;;;;;4.84;60.75;99560.41;108040;1254;73379;-64
2023/03/10 06:52:51;;;;;;;4.10;2.10;;;;;;;4.91;60.48;99551.61;108028;1254;60998;-64
2023/03/10 06:55:19;;;;;;;4.60;2.00;;;;;;;4.98;60.31;99553.35;107874;1254;61144;-63
2023/03/10 06:57:47;;;;;;;3.10;1.90;;;;;;;5.04;60.13;99551.61;108049;1254;75091;-63
2023/03/10 07:00:17;;;;;;;3.60;1.80;;;;;;;5.08;60.01;99553.27;108061;1254;74134;-63
2023/03/10 07:02:45;;;;;;;3.40;1.90;;;;;;;5.10;59.76;99549.33;108072;1254;71375;-64
2023/03/10 07:05:14;;;;;;;3.70;2.10;;;;;;;5.14;59.48;99549.59;108030;1254;61331;-61
2023/03/10 07:07:42;;;;;;;4.10;2.20;;;;;;;5.17;59.46;99546.66;108085;1254;61196;-63
2023/03/10 07:10:15;;;;;;;3.50;2.30;;;;;;;5.23;59.33;99544.25;108037;1254;75755;-62
2023/03/10 07:12:44;;;;;;;4.10;2.40;;;;;;;5.28;59.35;99548.13;108030;1254;73915;-63
2023/03/10 07:15:14;;;;;;;3.70;2.40;;;;;;;5.31;58.85;99542.23;108101;1254;70646;-63
2023/03/10 07:17:45;;;;;;;3.60;2.10;;;;;;;5.42;58.66;99539.23;108098;1254;61109;-64
2023/03/10 07:20:14;;;;;;;3.40;2.00;;;;;;;5.54;58.63;99543.87;108056;1254;61594;-64
2023/03/10 07:22:42;;;;;;;3.80;2.00;;;;;;;5.62;58.19;99540.30;108056;1254;75395;-64
2023/03/10 07:25:12;;;;;;;3.10;1.50;;;;;;;5.69;58.15;99540.16;108156;1258;73144;-63
2023/03/10 07:27:40;;;;;;;3.90;1.70;;;;;;;5.73;57.86;99540.09;108057;1254;71590;-65
2023/03/10 07:30:10;;;;;;;3.70;1.80;;;;;;;5.72;57.85;99549.08;108075;1254;61100;-64
2023/03/10 07:32:38;;;;;;;2.80;1.60;;;;;;;5.70;57.79;99557.65;108167;1254;61119;-64
2023/03/10 07:35:07;;;;;;;2.90;1.70;;;;;;;5.68;57.20;99562.81;108087;1253;74831;-63
2023/03/10 07:37:38;;;;;;;4.40;2.00;;;;;;;5.61;57.23;99572.38;107976;1254;72209;-64
2023/03/10 07:40:07;;;;;;;3.20;1.80;;;;;;;5.56;57.09;99570.31;108100;1254;72947;-64
2023/03/10 07:42:35;;;;;;;3.90;1.70;;;;;;;5.52;56.90;99572.82;108128;1254;61249;-64
2023/03/10 07:45:05;;;;;;;4.30;1.80;;;;;;;5.49;56.78;99580.03;107948;1254;61126;-64
2023/03/10 07:47:33;;;;;;;4.30;2.10;;;;;;;5.52;56.78;99583.25;108055;1254;75814;-64
2023/03/10 07:50:02;;;;;;;3.80;2.20;;;;;;;5.52;56.87;99605.48;107985;1254;72680;-64
2023/03/10 07:52:31;;;;;;;3.70;1.80;;;;;;;5.57;57.26;99625.15;108030;1254;72595;-64
2023/03/10 07:55:00;;;;;;;4.20;2.50;;;;;;;5.64;57.21;99617.98;108005;1254;61554;-64
2023/03/10 07:57:29;;;;;;;5.40;2.70;;;;;;;5.72;56.92;99616.11;108108;1254;61185;-64
2023/03/10 07:59:57;;;;;;;3.80;2.20;;;;;;;5.79;56.73;99623.03;108045;1254;74844;-64
2023/03/10 08:02:25;;;;;;;3.00;1.70;;;;;;;5.88;56.61;99624.61;108092;1254;73095;-64
2023/03/10 08:04:54;;;;;;;3.40;2.00;;;;;;;5.95;56.45;99635.63;108109;1254;72854;-64
2023/03/10 08:07:30;;;;;;;2.90;1.80;;;;;;;6.01;56.05;99630.73;108110;1254;61208;-63
2023/03/10 08:09:59;;;;;;;4.30;2.30;;;;;;;6.05;55.85;99612.25;108114;1254;61100;-64
2023/03/10 08:12:28;;;;;;;4.60;1.80;;;;;;;6.13;55.77;99618.75;108076;1254;72436;-64
2023/03/10 08:14:57;;;;;;;3.10;1.80;;;;;;;6.26;55.74;99604.55;108061;1258;72055;-65
2023/03/10 08:17:29;;;;;;;4.30;2.10;;;;;;;6.37;55.55;99589.69;108050;1254;73048;-65
2023/03/10 08:19:58;;;;;;;3.30;1.90;;;;;;;6.50;55.17;99596.91;108038;1254;61247;-65
2023/03/10 08:22:27;;;;;;;3.50;1.90;;;;;;;6.62;54.78;99590.31;108082;1254;60950;-65
2023/03/10 08:24:55;;;;;;;3.60;1.90;;;;;;;6.74;54.64;99590.04;108049;1254;76214;-65
2023/03/10 08:27:25;;;;;;;3.50;2.10;;;;;;;6.87;54.40;99589.79;108054;1254;71845;-65
2023/03/10 08:29:59;;;;;;;4.10;2.30;;;;;;;7.07;54.17;99590.60;108034;1254;73403;-62
2023/03/10 08:32:27;;;;;;;3.90;2.40;;;;;;;7.23;53.80;99591.91;108019;1254;61209;-63
2023/03/10 08:34:56;;;;;;;4.50;2.80;;;;;;;7.34;53.57;99602.43;108034;1254;61137;-63
2023/03/10 08:37:24;;;;;;;6.10;4.10;;;;;;;7.38;53.03;99606.70;108049;1254;74895;-63
2023/03/10 08:39:55;;;;;;;5.20;3.30;;;;;;;7.44;52.81;99591.64;108023;1254;72477;-63
2023/03/10 08:42:25;;;;;;;7.30;5.10;;;;;;;7.50;52.57;99587.41;108045;1254;72985;-63
2023/03/10 08:44:55;;;;;;;7.50;4.60;;;;;;;7.51;52.28;99585.88;108089;1254;61189;-62
2023/03/10 08:47:24;;;;;;;9.70;6.20;;;;;;;7.49;52.01;99582.20;108175;1254;61136;-64
2023/03/10 08:49:57;;;;;;;9.30;5.60;;;;;;;7.55;52.35;99574.83;108080;1254;75793;-64
2023/03/10 08:52:26;;;;;;;10.10;6.90;;;;;;;7.71;52.19;99554.95;108042;1254;72499;-62
2023/03/10 08:54:55;;;;;;;10.30;7.70;;;;;;;7.69;51.58;99554.57;108045;1254;73646;-63
2023/03/10 08:57:26;;;;;;;9.80;6.80;;;;;;;7.63;51.70;99560.49;108057;1255;61054;-62
2023/03/10 08:59:55;;;;;;;7.60;5.60;;;;;;;7.65;51.91;99556.05;108071;1254;61138;-64
2023/03/10 09:02:24;;;;;;;7.40;5.20;;;;;;;7.67;51.68;99542.34;108057;1254;74086;-63
2023/03/10 09:04:52;;;;;;;8.60;5.00;;;;;;;7.61;51.59;99549.92;108019;1254;72760;-64
2023/03/10 09:07:21;;;;;;;6.70;4.90;;;;;;;7.60;51.65;99561.94;108055;1254;72718;-64
2023/03/10 09:09:50;;;;;;;6.00;4.00;;;;;;;7.59;51.69;99555.06;108040;1254;61075;-64
2023/03/10 09:12:19;;;;;;;6.80;3.80;;;;;;;7.54;51.70;99565.16;108073;1254;61246;-63
2023/03/10 09:14:47;;;;;;;6.30;3.60;;;;;;;7.61;51.92;99577.02;108094;1254;73861;-63
2023/03/10 09:17:17;;;;;;;6.40;3.40;;;;;;;7.79;51.99;99576.96;108104;1258;71934;-63
2023/03/10 09:19:45;;;;;;;6.10;4.00;;;;;;;7.94;51.70;99582.31;108075;1254;72070;-62
2023/03/10 09:22:14;;;;;;;6.40;3.90;;;;;;;7.97;51.33;99584.30;108052;1254;61265;-65
2023/03/10 09:24:43;;;;;;;6.40;3.40;;;;;;;7.93;50.90;99583.11;108150;1254;61295;-66
2023/03/10 09:27:11;;;;;;;3.80;2.50;;;;;;;7.83;51.00;99575.81;108110;1254;75391;-65
2023/03/10 09:29:40;;;;;;;5.20;2.60;;;;;;;7.71;51.24;99579.81;108053;1254;73710;-64
2023/03/10 09:32:10;;;;;;;4.10;2.50;;;;;;;7.70;51.82;99586.09;108032;1254;72679;-64
2023/03/10 09:34:39;;;;;;;3.20;2.10;;;;;;;7.81;51.54;99584.58;108014;1254;61241;-64
2023/03/10 09:37:14;;;;;;;4.90;2.30;;;;;;;7.80;51.40;99583.88;108035;1254;61378;-64
2023/03/10 09:39:43;;;;;;;3.60;2.10;;;;;;;7.74;51.34;99580.36;108007;1254;75628;-64
2023/03/10 09:42:33;;;;;;;4.80;2.60;;;;;;;7.70;51.57;99589.77;107898;1254;71371;-64
2023/03/10 09:45:22;;;;;;;5.10;3.10;;;;;;;7.68;51.55;99592.14;107998;1254;73341;-66
2023/03/10 09:48:32;;;;;;;4.20;2.60;;;;;;;7.83;52.02;99589.36;108047;1254;61233;-64
2023/03/10 09:51:04;;;;;;;4.60;2.80;;;;;;;7.97;51.79;99589.88;107385;1262;61140;-64
2023/03/10 09:53:52;;;;;;;4.40;2.60;;;;;;;8.07;51.39;99588.77;107335;1262;74728;-64
2023/03/10 09:56:27;;;;;;;3.30;2.20;;;;;;;8.16;51.16;99590.60;107804;1259;71936;-66
2023/03/10 09:59:10;;;;;;;4.90;3.10;;;;;;;8.35;51.20;99590.94;108530;1254;71827;-64
2023/03/10 10:01:43;;;;;;;4.90;3.10;;;;;;;8.56;50.56;99588.30;107991;1259;61123;-65
2023/03/10 10:04:17;;;;;;;4.60;2.60;;;;;;;8.63;50.06;99592.88;107903;1254;61314;-64
2023/03/10 10:06:47;;;;;;;4.60;2.60;;;;;;;8.69;50.28;99592.98;108024;1254;75111;-62
2023/03/10 10:09:31;;;;;;;4.60;2.30;;;;;;;8.82;49.97;99592.38;107990;1256;71708;-62
2023/03/10 10:12:12;;;;;;;4.20;2.50;;;;;;;8.86;49.54;99598.23;108038;1254;73015;-63
2023/03/10 10:14:42;;;;;;;4.10;3.00;;;;;;;8.85;49.41;99596.20;108019;1259;61105;-65
2023/03/10 10:17:46;;;;;;;4.00;2.70;;;;;;;8.84;49.55;99592.59;108033;1254;61123;-63
2023/03/10 10:20:41;;;;;;;4.10;2.50;;;;;;;8.84;49.69;99588.64;108017;1255;73789;-63
2023/03/10 10:23:23;;;;;;;4.10;2.50;;;;;;;8.81;49.72;99579.28;107956;1254;72626;-63
2023/03/10 10:25:52;;;;;;;3.90;2.70;;;;;;;8.78;50.11;99568.52;108100;1258;71884;-63
2023/03/10 10:28:42;;;;;;;4.00;2.30;;;;;;;8.89;50.31;99551.15;108016;1254;61314;-64
2023/03/10 10:31:16;;;;;;;5.00;2.50;;;;;;;8.94;49.98;99554.86;107955;1254;61123;-63
2023/03/10 10:33:55;;;;;;;4.90;2.80;;;;;;;8.86;50.10;99557.45;108042;1259;75437;-63
2023/03/10 10:36:28;;;;;;;4.00;3.00;;;;;;;8.86;50.37;99544.86;108004;1254;72665;-65
2023/03/10 10:38:58;;;;;;;4.60;3.00;;;;;;;8.86;50.12;99538.80;108002;1257;72568;-65
2023/03/10 10:41:28;;;;;;;4.00;2.60;;;;;;;8.92;50.49;99549.16;108012;1254;61192;-64
2023/03/10 10:44:05;;;;;;;3.30;2.10;;;;;;;9.03;50.61;99561.27;108053;1254;61120;-63
2023/03/10 10:46:35;;;;;;;3.90;2.60;;;;;;;9.22;50.50;99556.75;108012;1259;74135;-63
2023/03/10 10:49:24;;;;;;;4.40;2.70;;;;;;;9.36;50.08;99559.99;108087;1259;73537;-63
2023/03/10 10:52:04;;;;;;;4.50;2.40;;;;;;;9.54;49.80;99556.88;108033;1254;72669;-63
2023/03/10 10:54:37;;;;;;;4.10;2.60;;;;;;;9.72;49.50;99550.33;108031;1254;61243;-62
2023/03/10 10:57:18;;;;;;;4.60;2.60;;;;;;;9.89;49.07;99546.90;107988;1255;61154;-64
2023/03/10 10:59:47;;;;;;;4.60;2.70;;;;;;;9.96;48.73;99536.25;108003;1258;75654;-62
2023/03/10 11:02:21;;;;;;;5.10;2.70;;;;;;;10.01;48.62;99525.71;108035;1259;73829;-63
2023/03/10 11:04:51;;;;;;;4.30;2.40;;;;;;;10.05;48.55;99507.95;107952;1257;73789;-63
2023/03/10 11:07:24;;;;;;;4.30;2.20;;;;;;;10.09;48.45;99501.73;108006;1257;61195;-63
2023/03/10 11:09:58;;;;;;;4.00;2.40;;;;;;;10.11;48.30;99509.15;107969;1254;61311;-63
2023/03/10 11:12:33;;;;;;;4.00;2.40;;;;;;;10.10;48.26;99513.36;107942;1259;74920;-64
2023/03/10 11:15:24;;;;;;;3.90;2.30;;;;;;;10.15;48.29;99506.29;107910;1260;70898;-65
2023/03/10 11:18:11;;;;;;;3.40;2.10;;;;;;;10.18;47.97;99499.96;108010;1257;73553;-63
2023/03/10 11:20:50;;;;;;;3.40;2.30;;;;;;;10.17;48.00;99497.17;108073;1257;61144;-63
2023/03/10 11:23:28;;;;;;;3.60;2.30;;;;;;;10.19;48.11;99498.14;107946;1258;61106;-63
2023/03/10 11:26:00;;;;;;;4.10;2.50;;;;;;;10.29;48.23;99507.69;107987;1256;73760;-63
2023/03/10 11:28:38;;;;;;;4.00;2.40;;;;;;;10.40;48.07;99514.54;107973;1259;72007;-64
2023/03/10 11:31:32;;;;;;;4.40;2.50;;;;;;;10.51;47.81;99524.35;107982;1255;73900;-64
2023/03/10 11:34:02;;;;;;;3.70;2.20;;;;;;;10.60;47.42;99513.55;108021;1259;61118;-63
2023/03/10 11:36:55;;;;;;;4.10;2.40;;;;;;;10.68;47.27;99507.69;108061;1254;61244;-63
2023/03/10 11:39:47;;;;;;;4.00;2.40;;;;;;;10.78;46.87;99500.59;108022;1258;73915;-63
2023/03/10 11:42:34;;;;;;;3.50;2.20;;;;;;;10.79;46.59;99505.05;108040;1259;72196;-64
2023/03/10 11:45:20;;;;;;;3.70;2.20;;;;;;;10.78;46.55;99503.14;108046;1258;72021;-63
2023/03/10 11:47:55;;;;;;;3.50;2.20;;;;;;;10.81;46.55;99504.39;107945;1254;61546;-66
2023/03/10 11:50:38;;;;;;;4.70;2.90;;;;;;;10.83;46.49;99496.16;108009;1256;59334;-64
2023/03/10 11:53:16;;;;;;;4.10;2.50;;;;;;;10.85;46.52;99487.00;108221;1254;74001;-66
2023/03/10 11:55:45;;;;;;;5.90;2.80;;;;;;;10.86;46.43;99490.13;107956;1259;72849;-65